Glens Falls, NY

03:23 EDT le 28 août 2014 (GMT -0400)
Schenectady County | Change Station
CLOSE
Current Station
Aéroport
Location: Schenectady,
Altitude: 377 ft
Stations météo à proximité

Alt. 377 ft 42.85 °N, 73.93 °W | Updated 6 hours ago

Partly Cloudy
Partiellement nuageux
64 ° F
Paraît 64 ° F
N
4
Vent Variable Vent de NO
Gusts 6 mph

Aujourd'hui
Haut(e) -- | Bas -- ° F
--% Risque de précip.
Hier
Haut(e) -- | Bas -- ° F
Precip. -- pouce
6:14 AM 7:36 PM
Lune montante, 7% visible
Pression 29.94 pouce
Visibilité 10.0 Miles terrestres
Nuages Ciel dégagé
Point de rosée 59 ° F
Humidité 82%
Précipitations 0.00 pouce
Profondeur de la couche neigeuse Non disponible.
UV 0 sur 12
Pollen 9.40 sur 12
Qualité de l'air Non disponible.
Flu Activity Non disponible.
METAR KSCH 280050Z 27008KT 10SM CLR 22/14 A2994

More Conditions Fewer Conditions

Pression 29.94 pouce
Visibilité 10.0 Miles terrestres
Nuages Ciel dégagé
Point de rosée 59 ° F
Humidité 82%
Précipitations 0.00 pouce
Profondeur de la couche neigeuse Non disponible.
UV 0 sur 12
Pollen 9.40 sur 12
Qualité de l'air Non disponible.
Flu Activity Non disponible.
METAR KSCH 280050Z 27008KT 10SM CLR 22/14 A2994

More Conditions Fewer Conditions

10-Day Weather Forecast

Almanac

Astronomie

Aug. 28, 2014 Lever Coucher
Temps réel 06:14 EDT 19:36 EDT
Crépuscule civil 05:44 EDT 20:06 EDT
Crépuscule nautique 05:08 EDT 20:41 EDT
Crépuscule astronomique 04:30 EDT 21:19 EDT
Lune 09:10 EDT 20:52 EDT
Durée de lumière visible 14h 21m
Longueur du jour
13h 22m
Tomorrow will be 2m 48s shorter.
Lune montante, 7% of the Moon is Illuminated
Aujourd'hui
Lune montante
Sep 2
Premier quartier
Sep 8
Pleine lune
Sep 15
Dernier quartier
Sep 24
Nouveau

Extrêmes aujourd'hui

State Highs State Lows

Community

WunderPhotos

Upload Photos

1,747,912 Photos téléchargées !

Nearby

Qualité de l'air

  Qualité de l'air Indice de la qualité de l'air Polluant
jeudi Bon
OZONE
jeudi Bon
PM2.5

Épaisseur de neige

Station Depth Altitude
Pas de nouvelles chutes de neige

Activité sismique

Ville Distance Mag. Time & Date
No recent earthquake activity has been reported nearby.
Minimum magnitude displayed is 2.5.

Températures des eaux côtières

Lieu Température
Aucun rapport de station

Stations météo à proximité